createdAt,value
2019-04-22T00:01:45.688Z,12.00
2019-04-22T00:04:50.902Z,12.00
2019-04-22T00:07:58.131Z,12.00
2019-04-22T00:11:01.200Z,12.00
2019-04-22T00:13:47.181Z,12.00
2019-04-22T00:16:48.750Z,12.00
2019-04-22T00:19:36.168Z,12.00
2019-04-22T00:25:20.136Z,11.90
2019-04-22T00:28:15.746Z,11.90
2019-04-22T00:31:10.289Z,11.80
2019-04-22T00:34:05.149Z,11.70
2019-04-22T00:36:58.641Z,11.70
2019-04-22T00:39:51.818Z,11.70
2019-04-22T00:42:47.682Z,11.60
2019-04-22T00:45:45.889Z,11.60
2019-04-22T00:48:35.631Z,11.60
2019-04-22T00:51:30.136Z,11.60
2019-04-22T00:54:17.069Z,11.60
2019-04-22T00:57:12.565Z,11.60
2019-04-22T01:00:06.638Z,11.60
2019-04-22T01:03:05.803Z,11.60
2019-04-22T01:05:46.943Z,11.50
2019-04-22T01:08:53.773Z,11.50
2019-04-22T01:11:33.520Z,11.50
2019-04-22T01:14:29.727Z,11.40
2019-04-22T01:17:24.439Z,11.40
2019-04-22T01:20:39.039Z,11.30
2019-04-22T01:23:06.749Z,11.30
2019-04-22T01:25:57.076Z,11.30
2019-04-22T01:28:45.894Z,11.30
2019-04-22T01:31:31.541Z,11.30
2019-04-22T01:34:37.479Z,11.30
2019-04-22T01:37:34.577Z,11.40
2019-04-22T01:40:33.469Z,11.50
2019-04-22T01:43:33.490Z,11.50
2019-04-22T01:46:25.226Z,11.60
2019-04-22T01:49:16.047Z,11.60
2019-04-22T01:52:04.760Z,11.70
2019-04-22T01:55:04.306Z,11.80
2019-04-22T01:57:53.536Z,11.80
2019-04-22T02:00:44.297Z,11.80
2019-04-22T02:03:50.518Z,11.80
2019-04-22T02:06:34.876Z,11.80
2019-04-22T02:09:31.110Z,11.80
2019-04-22T02:12:19.601Z,11.70
2019-04-22T02:15:16.974Z,11.80
2019-04-22T02:18:18.570Z,11.70
2019-04-22T02:21:01.485Z,11.80
2019-04-22T02:23:53.931Z,11.70
2019-04-22T02:27:09.262Z,11.70
2019-04-22T02:29:44.422Z,11.70
2019-04-22T02:32:48.634Z,11.70
2019-04-22T02:38:46.741Z,11.60
2019-04-22T02:47:12.016Z,11.60
2019-04-22T02:49:59.724Z,11.50
2019-04-22T02:52:43.575Z,11.40
2019-04-22T02:55:49.298Z,11.40
2019-04-22T02:58:46.994Z,11.40
2019-04-22T03:01:39.981Z,11.30
2019-04-22T03:07:09.033Z,11.30
2019-04-22T03:10:12.092Z,11.20
2019-04-22T03:13:00.916Z,11.10
2019-04-22T03:16:07.672Z,11.00
2019-04-22T03:18:55.576Z,11.00
2019-04-22T03:21:38.827Z,10.90
2019-04-22T03:27:27.529Z,10.80
2019-04-22T03:36:34.753Z,10.60
2019-04-22T03:39:15.097Z,10.50
2019-04-22T03:44:57.208Z,10.40
2019-04-22T03:47:53.604Z,10.40
2019-04-22T03:53:40.368Z,10.30
2019-04-22T03:56:56.847Z,10.40
2019-04-22T03:59:26.860Z,10.30
2019-04-22T04:02:17.168Z,10.30
2019-04-22T04:05:24.265Z,10.30
2019-04-22T04:07:55.251Z,10.30
2019-04-22T04:11:02.617Z,10.20
2019-04-22T04:13:39.562Z,10.20
2019-04-22T04:16:39.569Z,10.30
2019-04-22T04:19:34.763Z,10.30
2019-04-22T04:22:33.860Z,10.30
2019-04-22T04:25:33.362Z,10.30
2019-04-22T04:28:27.092Z,10.30
2019-04-22T04:31:09.959Z,10.30
2019-04-22T04:37:00.010Z,10.30
2019-04-22T04:39:43.368Z,10.30
2019-04-22T04:48:21.008Z,10.40
2019-04-22T04:54:12.932Z,10.50
2019-04-22T04:57:14.458Z,10.50
2019-04-22T05:00:35.095Z,10.60
2019-04-22T05:05:31.666Z,10.60
2019-04-22T05:08:39.005Z,10.60
2019-04-22T05:11:29.382Z,10.70
2019-04-22T05:14:24.993Z,10.80
2019-04-22T05:20:06.738Z,10.80
2019-04-22T05:22:55.888Z,10.90
2019-04-22T05:25:41.118Z,11.00
2019-04-22T05:28:35.050Z,11.10
2019-04-22T05:31:35.225Z,11.10
2019-04-22T05:34:25.357Z,11.20
2019-04-22T05:37:14.676Z,11.20
2019-04-22T05:40:16.343Z,11.30
2019-04-22T05:43:02.229Z,11.30
2019-04-22T05:45:56.307Z,11.30
2019-04-22T05:48:54.122Z,11.40
2019-04-22T05:51:42.321Z,11.50
2019-04-22T05:54:33.006Z,11.60
2019-04-22T05:57:24.751Z,11.70
2019-04-22T06:00:25.786Z,11.80
2019-04-22T06:03:12.410Z,11.90
2019-04-22T06:06:09.024Z,12.10
2019-04-22T06:11:45.955Z,12.30
2019-04-22T06:14:48.153Z,12.50
2019-04-22T06:17:47.297Z,12.70
2019-04-22T06:20:45.465Z,12.90
2019-04-22T06:23:40.455Z,13.00
2019-04-22T06:26:37.577Z,13.10
2019-04-22T06:29:19.443Z,13.30
2019-04-22T06:35:11.288Z,13.70
2019-04-22T06:38:18.888Z,13.90
2019-04-22T06:40:58.418Z,14.00
2019-04-22T06:43:54.424Z,14.30
2019-04-22T06:46:43.378Z,14.50
2019-04-22T06:52:22.681Z,15.30
2019-04-22T06:55:21.132Z,16.20
2019-04-22T06:58:13.768Z,17.10
2019-04-22T07:01:04.422Z,17.90
2019-04-22T07:06:55.909Z,19.10
2019-04-22T07:12:34.666Z,20.30
2019-04-22T07:18:24.958Z,21.30
2019-04-22T07:21:15.916Z,21.50
2019-04-22T07:27:08.147Z,23.50
2019-04-22T07:30:03.898Z,24.50
2019-04-22T07:35:56.068Z,26.20
2019-04-22T07:38:32.798Z,26.70
2019-04-22T07:41:27.348Z,27.20
2019-04-22T07:44:24.261Z,27.00
2019-04-22T07:47:18.828Z,27.30
2019-04-22T07:50:13.123Z,27.60
2019-04-22T07:52:58.639Z,28.10
2019-04-22T07:55:54.973Z,28.30
2019-04-22T07:58:48.946Z,28.50
2019-04-22T08:01:36.652Z,28.30
2019-04-22T08:04:49.631Z,28.60
2019-04-22T08:07:30.380Z,29.20
2019-04-22T08:10:34.837Z,28.90
2019-04-22T08:13:13.219Z,28.10
2019-04-22T08:16:03.117Z,28.70
2019-04-22T08:19:02.995Z,29.00
2019-04-22T08:21:57.008Z,29.10
2019-04-22T08:24:47.231Z,29.40
2019-04-22T08:33:29.453Z,27.40
2019-04-22T08:36:40.984Z,28.00
2019-04-22T08:39:15.395Z,28.40
2019-04-22T08:42:16.196Z,29.00
2019-04-22T08:47:48.916Z,30.00
2019-04-22T08:50:45.689Z,30.70
2019-04-22T08:53:40.357Z,30.00
2019-04-22T08:56:37.676Z,30.10
2019-04-22T08:59:43.215Z,30.70
2019-04-22T09:05:22.547Z,30.80
2019-04-22T09:11:10.653Z,30.90
2019-04-22T09:13:55.842Z,30.90
2019-04-22T09:16:51.200Z,30.00
2019-04-22T09:19:35.236Z,29.00
2019-04-22T09:22:47.071Z,28.90
2019-04-22T09:25:26.882Z,29.20
2019-04-22T09:28:15.240Z,29.80
2019-04-22T09:31:12.936Z,29.50
2019-04-22T09:33:59.641Z,29.80
2019-04-22T09:37:08.097Z,30.00
2019-04-22T09:42:44.253Z,31.60
2019-04-22T09:45:34.493Z,31.30
2019-04-22T09:48:50.177Z,31.30
2019-04-22T09:51:21.662Z,31.00
2019-04-22T09:54:22.212Z,31.10
2019-04-22T09:57:09.297Z,31.00
2019-04-22T10:00:10.965Z,31.20
2019-04-22T10:05:55.706Z,31.10
2019-04-22T10:08:59.337Z,30.90
2019-04-22T10:14:30.931Z,30.30
2019-04-22T10:17:19.197Z,30.70
2019-04-22T10:20:10.525Z,31.30
2019-04-22T10:23:17.689Z,30.90
2019-04-22T10:26:08.955Z,30.30
2019-04-22T10:31:49.835Z,29.90
2019-04-22T10:34:28.327Z,29.10
2019-04-22T10:37:11.732Z,28.80
2019-04-22T10:40:03.990Z,28.30
2019-04-22T10:42:53.802Z,29.20
2019-04-22T10:45:46.125Z,29.40
2019-04-22T10:48:38.047Z,28.80
2019-04-22T10:51:30.748Z,28.10
2019-04-22T10:54:23.339Z,28.60
2019-04-22T10:57:15.924Z,29.00
2019-04-22T11:00:09.249Z,29.20
2019-04-22T11:03:02.384Z,28.60
2019-04-22T11:05:54.347Z,28.10
2019-04-22T11:08:52.387Z,27.70
2019-04-22T11:11:49.122Z,27.60
2019-04-22T11:14:32.891Z,28.40
2019-04-22T11:17:25.746Z,29.20
2019-04-22T11:20:18.053Z,29.90
2019-04-22T11:23:10.782Z,30.20
2019-04-22T11:26:03.889Z,30.30
2019-04-22T11:28:56.002Z,30.20
2019-04-22T11:31:48.280Z,30.00
2019-04-22T11:34:40.260Z,28.90
2019-04-22T11:37:32.741Z,28.10
2019-04-22T11:40:34.602Z,28.40
2019-04-22T11:43:19.940Z,29.50
2019-04-22T11:46:13.429Z,30.70
2019-04-22T11:49:05.985Z,30.50
2019-04-22T11:51:58.942Z,30.40
2019-04-22T11:54:52.737Z,30.70
2019-04-22T11:57:47.583Z,30.90
2019-04-22T12:00:41.095Z,31.30
2019-04-22T12:03:33.852Z,31.50
2019-04-22T12:06:26.266Z,31.90
2019-04-22T12:09:19.514Z,31.30
2019-04-22T12:12:11.946Z,31.00
2019-04-22T12:15:06.382Z,30.40
2019-04-22T12:17:59.243Z,30.90
2019-04-22T12:20:51.027Z,31.10
2019-04-22T12:23:43.402Z,31.50
2019-04-22T12:26:35.820Z,31.40
2019-04-22T12:29:27.370Z,31.00
2019-04-22T12:32:18.759Z,30.80
2019-04-22T12:35:11.622Z,30.30
2019-04-22T12:38:08.442Z,30.20
2019-04-22T12:41:01.301Z,30.60
2019-04-22T12:43:51.302Z,30.50
2019-04-22T12:46:43.931Z,30.60
2019-04-22T12:49:40.139Z,31.10
2019-04-22T12:52:36.951Z,32.40
2019-04-22T12:55:22.119Z,33.20
2019-04-22T12:58:13.916Z,33.90
2019-04-22T13:01:06.814Z,34.50
2019-04-22T13:04:03.736Z,33.60
2019-04-22T13:06:51.521Z,32.20
2019-04-22T13:09:43.323Z,31.90
2019-04-22T13:12:35.025Z,32.20
2019-04-22T13:15:26.796Z,33.10
2019-04-22T13:18:28.728Z,33.90
2019-04-22T13:21:13.091Z,33.50
2019-04-22T13:24:04.759Z,33.10
2019-04-22T13:26:57.065Z,33.70
2019-04-22T13:29:48.782Z,33.90
2019-04-22T13:32:40.982Z,33.90
2019-04-22T13:35:33.912Z,34.50
2019-04-22T13:38:27.016Z,34.20
2019-04-22T13:41:29.198Z,33.90
2019-04-22T13:44:12.794Z,33.60
2019-04-22T13:47:26.411Z,32.70
2019-04-22T13:53:30.416Z,30.50
2019-04-22T13:56:01.745Z,29.60
2019-04-22T13:58:48.444Z,29.60
2019-04-22T14:01:56.477Z,29.30
2019-04-22T14:04:48.908Z,30.00
2019-04-22T14:07:41.204Z,30.00
2019-04-22T14:10:34.294Z,29.50
2019-04-22T14:13:26.192Z,29.40
2019-04-22T14:16:19.571Z,29.40
2019-04-22T14:19:11.894Z,28.90
2019-04-22T14:22:04.000Z,28.90
2019-04-22T14:24:56.486Z,29.20
2019-04-22T14:27:54.392Z,29.50
2019-04-22T14:30:42.522Z,29.50
2019-04-22T14:33:36.127Z,29.30
2019-04-22T14:36:29.555Z,28.60
2019-04-22T14:39:21.957Z,28.20
2019-04-22T14:42:38.469Z,28.30
2019-04-22T14:45:58.516Z,28.40
2019-04-22T14:48:31.584Z,28.40
2019-04-22T14:51:11.486Z,28.20
2019-04-22T14:54:08.567Z,28.20
2019-04-22T14:56:40.390Z,28.00
2019-04-22T14:59:32.573Z,28.00
2019-04-22T15:02:25.481Z,27.60
2019-04-22T15:05:18.609Z,27.70
2019-04-22T15:08:10.982Z,27.70
2019-04-22T15:11:02.478Z,27.60
2019-04-22T15:13:54.056Z,27.20
2019-04-22T15:17:03.141Z,27.50
2019-04-22T15:19:59.209Z,27.50
2019-04-22T15:22:50.844Z,27.30
2019-04-22T15:25:42.412Z,27.10
2019-04-22T15:28:35.541Z,27.10
2019-04-22T15:31:27.308Z,27.20
2019-04-22T15:34:20.633Z,26.80
2019-04-22T15:37:13.983Z,26.60
2019-04-22T15:40:06.958Z,26.50
2019-04-22T15:42:59.235Z,26.50
2019-04-22T15:45:50.901Z,26.40
2019-04-22T15:48:43.994Z,26.30
2019-04-22T15:51:36.429Z,26.30
2019-04-22T15:54:27.935Z,26.20
2019-04-22T15:57:20.374Z,26.20
2019-04-22T16:00:25.095Z,26.10
2019-04-22T16:03:08.464Z,26.00
2019-04-22T16:05:59.708Z,25.90
2019-04-22T16:08:52.078Z,25.80
2019-04-22T16:11:43.630Z,25.70
2019-04-22T16:14:41.226Z,25.60
2019-04-22T16:17:28.748Z,25.60
2019-04-22T16:20:23.262Z,25.60
2019-04-22T16:23:24.621Z,25.60
2019-04-22T16:26:20.218Z,25.50
2019-04-22T16:29:13.488Z,25.50
2019-04-22T16:32:05.676Z,25.50
2019-04-22T16:34:58.877Z,25.50
2019-04-22T16:37:50.711Z,25.30
2019-04-22T16:40:42.964Z,25.10
2019-04-22T16:43:36.463Z,24.90
2019-04-22T16:46:27.964Z,24.80
2019-04-22T16:49:19.453Z,24.80
2019-04-22T16:52:12.082Z,24.80
2019-04-22T16:55:05.333Z,24.80
2019-04-22T16:57:56.847Z,24.80
2019-04-22T17:00:49.671Z,24.80
2019-04-22T17:04:00.570Z,24.70
2019-04-22T17:06:53.333Z,24.50
2019-04-22T17:09:45.852Z,24.30
2019-04-22T17:12:46.830Z,24.20
2019-04-22T17:15:31.202Z,24.00
2019-04-22T17:18:23.521Z,23.80
2019-04-22T17:21:14.871Z,23.60
2019-04-22T17:24:07.755Z,23.40
2019-04-22T17:27:00.137Z,23.20
2019-04-22T17:29:52.766Z,23.10
2019-04-22T17:32:46.791Z,22.90
2019-04-22T17:35:38.187Z,22.70
2019-04-22T17:38:44.274Z,22.60
2019-04-22T17:41:38.808Z,22.40
2019-04-22T17:44:55.739Z,22.30
2019-04-22T17:47:41.008Z,22.20
2019-04-22T17:50:44.382Z,22.10
2019-04-22T17:53:40.299Z,22.00
2019-04-22T17:56:34.965Z,21.90
2019-04-22T17:59:22.903Z,21.80
2019-04-22T18:02:13.385Z,21.80
2019-04-22T18:04:56.274Z,21.70
2019-04-22T18:08:02.636Z,21.60
2019-04-22T18:10:54.262Z,21.50
2019-04-22T18:13:51.625Z,21.40
2019-04-22T18:16:42.780Z,21.40
2019-04-22T18:19:31.538Z,21.20
2019-04-22T18:22:22.021Z,21.10
2019-04-22T18:25:11.417Z,21.00
2019-04-22T18:28:17.283Z,20.80
2019-04-22T18:31:03.199Z,20.60
2019-04-22T18:34:02.051Z,20.50
2019-04-22T18:36:54.143Z,20.30
2019-04-22T18:39:46.398Z,20.20
2019-04-22T18:42:34.854Z,20.10
2019-04-22T18:45:39.745Z,20.10
2019-04-22T18:48:21.766Z,20.10
2019-04-22T18:51:29.163Z,20.10
2019-04-22T18:54:36.222Z,20.00
2019-04-22T18:57:31.026Z,19.90
2019-04-22T19:00:18.661Z,19.80
2019-04-22T19:03:16.473Z,19.80
2019-04-22T19:06:35.462Z,19.60
2019-04-22T19:09:21.726Z,19.50
2019-04-22T19:12:24.215Z,19.50
2019-04-22T19:15:13.223Z,19.40
2019-04-22T19:18:02.162Z,19.30
2019-04-22T19:21:37.977Z,19.20
2019-04-22T19:23:49.104Z,19.10
2019-04-22T19:26:50.265Z,19.00
2019-04-22T19:29:37.828Z,18.90
2019-04-22T19:32:35.089Z,18.90
2019-04-22T19:35:17.192Z,18.80
2019-04-22T19:38:09.574Z,18.70
2019-04-22T19:41:16.487Z,18.70
2019-04-22T19:44:04.067Z,18.70
2019-04-22T19:47:14.448Z,18.70
2019-04-22T19:49:52.379Z,18.80
2019-04-22T19:52:40.318Z,18.70
2019-04-22T19:55:36.267Z,18.80
2019-04-22T19:58:25.924Z,18.70
2019-04-22T20:01:44.981Z,18.70
2019-04-22T20:04:53.779Z,18.60
2019-04-22T20:07:46.935Z,18.50
2019-04-22T20:10:40.091Z,18.50
2019-04-22T20:13:36.495Z,18.40
2019-04-22T20:16:20.705Z,18.40
2019-04-22T20:19:25.563Z,18.30
2019-04-22T20:22:08.387Z,18.30
2019-04-22T20:24:55.366Z,18.10
2019-04-22T20:28:01.585Z,18.00
2019-04-22T20:30:50.649Z,17.90
2019-04-22T20:33:50.269Z,17.80
2019-04-22T20:39:33.452Z,17.70
2019-04-22T20:42:38.689Z,17.60
2019-04-22T20:45:29.475Z,17.60
2019-04-22T20:48:05.111Z,17.40
2019-04-22T20:51:04.177Z,17.40
2019-04-22T20:54:02.802Z,17.40
2019-04-22T20:56:49.142Z,17.40
2019-04-22T20:59:44.271Z,17.30
2019-04-22T21:02:31.315Z,17.30
2019-04-22T21:05:26.504Z,17.30
2019-04-22T21:08:24.440Z,17.20
2019-04-22T21:11:17.574Z,17.20
2019-04-22T21:14:05.871Z,17.10
2019-04-22T21:17:06.689Z,17.00
2019-04-22T21:20:00.829Z,16.90
2019-04-22T21:22:50.820Z,16.80
2019-04-22T21:25:34.976Z,16.70
2019-04-22T21:28:41.491Z,16.60
2019-04-22T21:31:33.706Z,16.60
2019-04-22T21:34:20.642Z,16.50
2019-04-22T21:37:20.827Z,16.50
2019-04-22T21:40:06.552Z,16.50
2019-04-22T21:43:08.915Z,16.40
2019-04-22T21:45:58.703Z,16.30
2019-04-22T21:48:46.190Z,16.20
2019-04-22T21:51:48.085Z,16.20
2019-04-22T21:54:45.492Z,16.10
2019-04-22T21:57:55.540Z,16.10
2019-04-22T22:01:00.484Z,16.20
2019-04-22T22:03:43.963Z,16.20
2019-04-22T22:06:30.756Z,16.10
2019-04-22T22:09:33.186Z,16.10
2019-04-22T22:12:26.518Z,16.10
2019-04-22T22:15:22.557Z,16.10
2019-04-22T22:18:08.737Z,16.10
2019-04-22T22:21:19.412Z,16.00
2019-04-22T22:24:01.296Z,16.00
2019-04-22T22:26:54.239Z,15.90
2019-04-22T22:32:43.740Z,15.80
2019-04-22T22:35:29.664Z,15.80
2019-04-22T22:38:26.291Z,15.70
2019-04-22T22:40:58.097Z,15.70
2019-04-22T22:43:52.758Z,15.70
2019-04-22T22:46:59.127Z,15.50
2019-04-22T22:49:59.603Z,15.40
2019-04-22T22:53:00.916Z,15.30
2019-04-22T22:55:39.612Z,15.10
2019-04-22T22:58:39.304Z,15.10
2019-04-22T23:01:30.185Z,15.10
2019-04-22T23:04:31.240Z,15.20
2019-04-22T23:07:22.562Z,15.10
2019-04-22T23:10:06.153Z,15.10
2019-04-22T23:13:08.598Z,15.00
2019-04-22T23:15:50.155Z,14.90
2019-04-22T23:18:28.009Z,14.80
2019-04-22T23:21:29.310Z,14.80
2019-04-22T23:24:45.492Z,14.80
2019-04-22T23:27:46.365Z,14.70
2019-04-22T23:30:49.761Z,14.60
2019-04-22T23:33:57.184Z,14.60
2019-04-22T23:36:57.577Z,14.60
2019-04-22T23:42:52.990Z,14.60
2019-04-22T23:45:45.219Z,14.60
2019-04-22T23:48:29.050Z,14.50
2019-04-22T23:51:26.698Z,14.40
2019-04-22T23:54:29.097Z,14.30
2019-04-22T23:57:15.197Z,14.30
